Time;durP1;ratioP1;P1;durP2;ratioP2;P2;SDS_P1;SDS_P2;PMS_P1;PMS_P2;Temp;Humidity;BMP_temperature;BMP_pressure;BME280_temperature;BME280_humidity;BME280_pressure;Samples;Min_cycle;Max_cycle;Signal;HPM_P1;HPM_P2
2023/07/15 00:00:33;;;;;;;;;;;17.20;99.90;;;;;;5122225;27;19916;-55
2023/07/15 00:02:58;;;;;;;;;;;17.20;99.90;;;;;;5123531;27;19912;-56
2023/07/15 00:05:30;;;;;;;;;;;17.20;99.90;;;;;;5135988;27;19919;-56
2023/07/15 00:07:56;;;;;;;;;;;17.30;99.90;;;;;;5130651;27;19911;-55
2023/07/15 00:10:22;;;;;;;;;;;17.30;99.90;;;;;;5139227;27;19919;-56
2023/07/15 00:12:48;;;;;;;;;;;17.30;99.90;;;;;;5132170;27;20380;-54
2023/07/15 00:15:14;;;;;;;;;;;17.30;99.90;;;;;;5126606;27;20002;-55
2023/07/15 00:17:39;;;;;;;;;;;17.40;99.90;;;;;;5129150;27;19912;-55
2023/07/15 00:20:14;;;;;;;;;;;17.40;99.90;;;;;;5122285;27;19919;-56
2023/07/15 00:22:41;;;;;;;;;;;17.40;99.90;;;;;;5124195;27;19911;-56
2023/07/15 00:25:09;;;;;;;;;;;17.30;99.90;;;;;;5132818;27;19911;-54
2023/07/15 00:27:35;;;;;;;;;;;17.40;99.90;;;;;;5120151;28;19919;-52
2023/07/15 00:30:01;;;;;;;;;;;17.30;99.90;;;;;;5119673;27;19963;-53
2023/07/15 00:32:26;;;;;;;;;;;17.30;99.90;;;;;;5121732;27;20370;-55
2023/07/15 00:34:52;;;;;;;;;;;17.30;99.90;;;;;;5123458;27;20420;-55
2023/07/15 00:37:17;;;;;;;;;;;17.30;99.90;;;;;;5124526;27;19997;-52
2023/07/15 00:39:45;;;;;;;;;;;17.30;99.90;;;;;;5125338;27;19930;-56
2023/07/15 00:42:16;;;;;;;;;;;17.30;99.90;;;;;;5124899;27;20363;-54
2023/07/15 00:44:41;;;;;;;;;;;17.30;99.90;;;;;;5126848;27;19958;-55
2023/07/15 00:47:21;;;;;;;;;;;17.40;99.90;;;;;;5129046;27;19912;-55
2023/07/15 00:49:48;;;;;;;;;;;17.40;99.90;;;;;;5119579;28;19998;-53
2023/07/15 00:52:16;;;;;;;;;;;17.50;99.90;;;;;;5120959;27;19916;-56
2023/07/15 00:54:42;;;;;;;;;;;17.40;99.90;;;;;;5133336;27;19912;-54
2023/07/15 00:57:09;;;;;;;;;;;17.30;99.90;;;;;;5135172;27;19954;-54
2023/07/15 00:59:36;;;;;;;;;;;17.20;99.90;;;;;;5121532;27;19933;-56
2023/07/15 01:02:01;;;;;;;;;;;17.10;99.90;;;;;;5131337;27;19947;-54
2023/07/15 01:04:27;;;;;;;;;;;17.10;99.90;;;;;;5119850;27;19911;-55
2023/07/15 01:06:53;;;;;;;;;;;17.00;99.90;;;;;;5133303;27;19915;-56
2023/07/15 01:09:19;;;;;;;;;;;17.00;99.90;;;;;;5139810;27;19956;-56
2023/07/15 01:11:45;;;;;;;;;;;17.00;99.90;;;;;;5137052;27;19924;-56
2023/07/15 01:14:12;;;;;;;;;;;17.00;99.90;;;;;;5120356;27;19915;-56
2023/07/15 01:16:39;;;;;;;;;;;17.00;99.90;;;;;;5124025;27;19971;-56
2023/07/15 01:19:05;;;;;;;;;;;16.90;99.90;;;;;;5137573;27;19927;-55
2023/07/15 01:21:33;;;;;;;;;;;16.90;99.90;;;;;;5135189;27;19922;-53
2023/07/15 01:23:59;;;;;;;;;;;16.90;99.90;;;;;;5132821;27;19918;-56
2023/07/15 01:26:24;;;;;;;;;;;16.80;99.90;;;;;;5128420;27;19994;-56
2023/07/15 01:28:50;;;;;;;;;;;16.80;99.90;;;;;;5130303;27;19904;-52
2023/07/15 01:31:17;;;;;;;;;;;16.80;99.90;;;;;;5118952;28;19943;-56
2023/07/15 01:33:42;;;;;;;;;;;16.80;99.90;;;;;;5129415;27;19912;-55
2023/07/15 01:36:08;;;;;;;;;;;16.80;99.90;;;;;;5128075;27;20266;-56
2023/07/15 01:38:34;;;;;;;;;;;16.80;99.90;;;;;;5136016;27;19965;-54
2023/07/15 01:40:59;;;;;;;;;;;16.80;99.90;;;;;;5125012;27;19915;-56
2023/07/15 01:43:25;;;;;;;;;;;16.80;99.90;;;;;;5132116;27;20052;-54
2023/07/15 01:45:52;;;;;;;;;;;16.80;99.90;;;;;;5121782;27;19911;-55
2023/07/15 01:48:18;;;;;;;;;;;16.80;99.90;;;;;;5122593;27;20002;-57
2023/07/15 01:50:44;;;;;;;;;;;16.80;99.90;;;;;;5134269;27;19947;-54
2023/07/15 01:53:09;;;;;;;;;;;16.80;99.90;;;;;;5125900;27;19911;-56
2023/07/15 01:55:35;;;;;;;;;;;16.80;99.90;;;;;;5137559;27;19915;-54
2023/07/15 01:58:01;;;;;;;;;;;16.80;99.90;;;;;;5127458;27;19999;-53
2023/07/15 02:00:27;;;;;;;;;;;16.80;99.90;;;;;;5119166;28;19963;-56
2023/07/15 02:02:53;;;;;;;;;;;16.80;99.90;;;;;;5117972;28;19911;-57
2023/07/15 02:05:18;;;;;;;;;;;16.80;99.90;;;;;;5127860;28;19912;-53
2023/07/15 02:07:44;;;;;;;;;;;16.80;99.90;;;;;;5133184;28;19918;-56
2023/07/15 02:10:10;;;;;;;;;;;16.90;99.90;;;;;;5136983;28;19918;-55
2023/07/15 02:12:35;;;;;;;;;;;16.90;99.90;;;;;;5128045;28;19912;-56
2023/07/15 02:15:01;;;;;;;;;;;16.90;99.90;;;;;;5135037;28;20429;-53
2023/07/15 02:17:27;;;;;;;;;;;16.90;99.90;;;;;;5134839;28;19914;-56
2023/07/15 02:19:59;;;;;;;;;;;16.90;99.90;;;;;;5117649;28;19972;-55
2023/07/15 02:22:25;;;;;;;;;;;16.90;99.90;;;;;;5118357;28;19947;-56
2023/07/15 02:24:51;;;;;;;;;;;16.90;99.90;;;;;;5119649;28;19908;-56
2023/07/15 02:27:16;;;;;;;;;;;16.90;99.90;;;;;;5138699;28;20393;-55
2023/07/15 02:29:43;;;;;;;;;;;16.80;99.90;;;;;;5134084;28;19908;-56
2023/07/15 02:32:08;;;;;;;;;;;16.80;99.90;;;;;;5117800;28;20327;-54
2023/07/15 02:34:34;;;;;;;;;;;16.80;99.90;;;;;;5118228;28;19996;-55
2023/07/15 02:37:01;;;;;;;;;;;16.80;99.90;;;;;;5137348;28;19911;-56
2023/07/15 02:39:26;;;;;;;;;;;16.80;99.90;;;;;;5139090;28;19907;-55
2023/07/15 02:41:52;;;;;;;;;;;16.80;99.90;;;;;;5138648;28;20274;-56
2023/07/15 02:44:17;;;;;;;;;;;16.80;99.90;;;;;;5138665;28;19994;-56
2023/07/15 02:46:43;;;;;;;;;;;16.80;99.90;;;;;;5120801;28;19916;-56
2023/07/15 02:49:09;;;;;;;;;;;16.70;99.90;;;;;;5117986;28;19943;-54
2023/07/15 02:51:34;;;;;;;;;;;16.70;99.90;;;;;;5118028;28;19908;-57
2023/07/15 02:54:00;;;;;;;;;;;16.70;99.90;;;;;;5117733;28;19919;-56
2023/07/15 02:56:26;;;;;;;;;;;16.90;99.90;;;;;;5129110;28;19911;-55
2023/07/15 02:58:51;;;;;;;;;;;16.70;99.90;;;;;;5118931;28;19912;-55
2023/07/15 03:01:17;;;;;;;;;;;16.70;99.90;;;;;;5128300;27;19922;-55
2023/07/15 03:03:43;;;;;;;;;;;16.70;99.90;;;;;;5125048;27;19916;-55
2023/07/15 03:06:09;;;;;;;;;;;16.80;99.90;;;;;;5133076;27;20387;-56
2023/07/15 03:08:34;;;;;;;;;;;16.80;99.90;;;;;;5139998;27;19911;-55
2023/07/15 03:11:00;;;;;;;;;;;16.80;99.90;;;;;;5142154;27;19914;-56
2023/07/15 03:13:25;;;;;;;;;;;16.80;99.90;;;;;;5138870;27;19919;-56
2023/07/15 03:15:55;;;;;;;;;;;16.80;99.90;;;;;;5129021;27;19911;-56
2023/07/15 03:18:25;;;;;;;;;;;16.80;99.90;;;;;;5134298;27;19920;-56
2023/07/15 03:20:51;;;;;;;;;;;16.70;99.90;;;;;;5120951;28;19916;-56
2023/07/15 03:23:16;;;;;;;;;;;16.70;99.90;;;;;;5139640;27;20341;-55
2023/07/15 03:25:42;;;;;;;;;;;16.60;99.90;;;;;;5133333;27;20310;-56
2023/07/15 03:28:07;;;;;;;;;;;16.60;99.90;;;;;;5120760;27;19916;-56
2023/07/15 03:30:33;;;;;;;;;;;16.60;99.90;;;;;;5122022;27;19914;-54
2023/07/15 03:32:59;;;;;;;;;;;16.60;99.90;;;;;;5122166;27;20287;-57
2023/07/15 03:35:24;;;;;;;;;;;16.50;99.90;;;;;;5125979;27;20065;-56
2023/07/15 03:37:50;;;;;;;;;;;16.50;99.90;;;;;;5139698;27;19912;-55
2023/07/15 03:40:16;;;;;;;;;;;16.50;99.90;;;;;;5140715;27;19968;-54
2023/07/15 03:42:42;;;;;;;;;;;16.50;99.90;;;;;;5141180;27;19911;-56
2023/07/15 03:45:09;;;;;;;;;;;16.50;99.90;;;;;;5131147;27;19923;-55
2023/07/15 03:47:35;;;;;;;;;;;16.50;99.90;;;;;;5124233;27;19911;-56
2023/07/15 03:50:01;;;;;;;;;;;16.60;99.90;;;;;;5137110;27;19918;-57
2023/07/15 03:52:27;;;;;;;;;;;16.60;99.90;;;;;;5131638;27;19911;-56
2023/07/15 03:54:52;;;;;;;;;;;16.70;99.90;;;;;;5124560;27;19918;-56
2023/07/15 03:57:18;;;;;;;;;;;16.80;99.90;;;;;;5120824;28;20385;-56
2023/07/15 03:59:44;;;;;;;;;;;16.80;99.90;;;;;;5128252;27;19908;-55
2023/07/15 04:02:09;;;;;;;;;;;16.80;99.90;;;;;;5135619;27;19920;-56
2023/07/15 04:04:35;;;;;;;;;;;16.90;99.90;;;;;;5121317;27;19911;-55
2023/07/15 04:07:01;;;;;;;;;;;16.90;99.90;;;;;;5138201;27;19933;-54
2023/07/15 04:09:27;;;;;;;;;;;16.90;99.90;;;;;;5139133;27;19908;-56
2023/07/15 04:11:52;;;;;;;;;;;16.90;99.90;;;;;;5121124;27;19919;-54
2023/07/15 04:14:18;;;;;;;;;;;16.90;99.90;;;;;;5132136;27;19907;-56
2023/07/15 04:16:44;;;;;;;;;;;16.90;99.90;;;;;;5140979;27;19911;-56
2023/07/15 04:19:09;;;;;;;;;;;16.90;99.90;;;;;;5131825;27;19972;-55
2023/07/15 04:21:35;;;;;;;;;;;16.80;99.90;;;;;;5138380;27;19921;-56
2023/07/15 04:24:00;;;;;;;;;;;16.70;99.90;;;;;;5134625;27;19919;-56
2023/07/15 04:26:26;;;;;;;;;;;16.50;99.90;;;;;;5119678;28;19971;-54
2023/07/15 04:28:54;;;;;;;;;;;16.50;99.90;;;;;;5121294;27;19911;-56
2023/07/15 04:31:20;;;;;;;;;;;16.40;99.90;;;;;;5133301;27;19911;-53
2023/07/15 04:33:49;;;;;;;;;;;16.30;99.90;;;;;;5121185;27;19983;-54
2023/07/15 04:36:15;;;;;;;;;;;16.30;99.90;;;;;;5130821;27;20397;-56
2023/07/15 04:38:41;;;;;;;;;;;16.20;99.90;;;;;;5121103;27;19931;-56
2023/07/15 04:41:07;;;;;;;;;;;16.10;99.90;;;;;;5119547;28;19916;-56
2023/07/15 04:43:32;;;;;;;;;;;16.00;99.90;;;;;;5120348;27;19915;-55
2023/07/15 04:45:58;;;;;;;;;;;15.90;99.90;;;;;;5120601;27;19918;-57
2023/07/15 04:48:24;;;;;;;;;;;15.90;99.90;;;;;;5127899;27;19918;-55
2023/07/15 04:50:50;;;;;;;;;;;15.80;99.90;;;;;;5133390;27;20002;-54
2023/07/15 04:53:16;;;;;;;;;;;15.80;99.90;;;;;;5129934;27;19908;-55
2023/07/15 04:55:42;;;;;;;;;;;15.80;99.90;;;;;;5122587;27;20358;-56
2023/07/15 04:58:08;;;;;;;;;;;15.90;99.90;;;;;;5134633;27;20291;-55
2023/07/15 05:00:34;;;;;;;;;;;15.80;99.90;;;;;;5130675;27;19919;-55
2023/07/15 05:03:01;;;;;;;;;;;15.90;99.90;;;;;;5132902;27;19950;-55
2023/07/15 05:05:27;;;;;;;;;;;15.90;99.90;;;;;;5127865;27;20473;-54
2023/07/15 05:07:53;;;;;;;;;;;15.90;99.90;;;;;;5128301;27;20015;-57
2023/07/15 05:10:19;;;;;;;;;;;15.90;99.90;;;;;;5129076;27;19919;-54
2023/07/15 05:12:45;;;;;;;;;;;15.90;99.90;;;;;;5128001;27;19908;-56
2023/07/15 05:15:11;;;;;;;;;;;15.90;99.90;;;;;;5127398;27;19911;-55
2023/07/15 05:17:37;;;;;;;;;;;16.00;99.90;;;;;;5123307;27;19912;-54
2023/07/15 05:20:03;;;;;;;;;;;16.10;99.90;;;;;;5119891;27;19915;-54
2023/07/15 05:22:28;;;;;;;;;;;16.10;99.90;;;;;;5131117;27;19912;-54
2023/07/15 05:24:55;;;;;;;;;;;16.10;99.90;;;;;;5111488;27;19918;-56
2023/07/15 05:27:20;;;;;;;;;;;16.10;99.90;;;;;;5124024;27;19912;-55
2023/07/15 05:29:46;;;;;;;;;;;16.20;99.90;;;;;;5122612;27;20041;-55
2023/07/15 05:32:12;;;;;;;;;;;16.20;99.90;;;;;;5118643;28;19912;-53
2023/07/15 05:34:37;;;;;;;;;;;16.30;99.90;;;;;;5122287;27;20003;-54
2023/07/15 05:37:03;;;;;;;;;;;16.30;99.90;;;;;;5134612;27;19908;-52
2023/07/15 05:39:28;;;;;;;;;;;16.40;99.90;;;;;;5126423;27;19912;-56
2023/07/15 05:41:54;;;;;;;;;;;16.50;99.90;;;;;;5121618;27;19915;-56
2023/07/15 05:44:20;;;;;;;;;;;16.50;99.90;;;;;;5134884;27;19911;-54
2023/07/15 05:46:45;;;;;;;;;;;16.50;99.90;;;;;;5130542;27;19912;-54
2023/07/15 05:49:11;;;;;;;;;;;16.60;99.90;;;;;;5139094;27;19915;-54
2023/07/15 05:51:36;;;;;;;;;;;16.60;99.90;;;;;;5122307;27;19908;-52
2023/07/15 05:54:02;;;;;;;;;;;16.60;99.90;;;;;;5139405;27;19908;-56
2023/07/15 05:56:28;;;;;;;;;;;16.60;99.90;;;;;;5139638;27;19931;-56
2023/07/15 05:58:53;;;;;;;;;;;16.70;99.90;;;;;;5136174;27;19907;-55
2023/07/15 06:01:19;;;;;;;;;;;16.70;99.90;;;;;;5119634;28;19922;-55
2023/07/15 06:03:45;;;;;;;;;;;16.70;99.90;;;;;;5124951;28;20283;-57
2023/07/15 06:06:12;;;;;;;;;;;16.70;99.90;;;;;;5132352;28;19912;-53
2023/07/15 06:08:38;;;;;;;;;;;16.80;99.90;;;;;;5136673;28;19915;-50
2023/07/15 06:11:04;;;;;;;;;;;16.80;99.90;;;;;;5121503;28;19907;-56
2023/07/15 06:13:29;;;;;;;;;;;16.80;99.90;;;;;;5133922;28;20390;-56
2023/07/15 06:15:55;;;;;;;;;;;16.80;99.90;;;;;;5121693;28;19923;-57
2023/07/15 06:18:21;;;;;;;;;;;16.80;99.90;;;;;;5136885;28;19919;-56
2023/07/15 06:20:47;;;;;;;;;;;16.80;99.90;;;;;;5118124;28;19916;-56
2023/07/15 06:23:13;;;;;;;;;;;16.70;99.90;;;;;;5119316;28;19929;-56
2023/07/15 06:25:38;;;;;;;;;;;16.70;99.90;;;;;;5125870;28;19911;-55
2023/07/15 06:28:04;;;;;;;;;;;16.80;99.90;;;;;;5135902;28;19918;-55
2023/07/15 06:30:30;;;;;;;;;;;16.80;99.90;;;;;;5134191;28;20347;-54
2023/07/15 06:32:55;;;;;;;;;;;16.80;99.90;;;;;;5123130;28;19969;-56
2023/07/15 06:35:21;;;;;;;;;;;16.90;99.90;;;;;;5118258;28;19915;-57
2023/07/15 06:37:50;;;;;;;;;;;16.90;99.90;;;;;;5121494;27;19988;-56
2023/07/15 06:40:16;;;;;;;;;;;17.00;99.90;;;;;;5124906;27;19926;-54
2023/07/15 06:42:42;;;;;;;;;;;17.00;99.90;;;;;;5131483;27;19911;-55
2023/07/15 06:45:08;;;;;;;;;;;16.80;99.90;;;;;;5129020;27;19946;-53
2023/07/15 06:47:34;;;;;;;;;;;17.10;99.90;;;;;;5129042;27;19919;-53
2023/07/15 06:50:00;;;;;;;;;;;17.10;99.90;;;;;;5121511;27;19911;-53
2023/07/15 06:52:25;;;;;;;;;;;17.00;99.90;;;;;;5121901;28;20452;-56
2023/07/15 06:54:52;;;;;;;;;;;17.00;99.90;;;;;;5133949;27;20431;-54
2023/07/15 06:57:18;;;;;;;;;;;17.00;99.90;;;;;;5141812;27;20374;-56
2023/07/15 06:59:43;;;;;;;;;;;17.00;99.90;;;;;;5136119;27;19938;-56
2023/07/15 07:02:09;;;;;;;;;;;16.90;99.90;;;;;;5138733;27;20428;-55
2023/07/15 07:04:35;;;;;;;;;;;16.90;99.90;;;;;;5129509;27;20006;-56
2023/07/15 07:07:01;;;;;;;;;;;16.80;99.90;;;;;;5121756;28;19915;-56
2023/07/15 07:09:26;;;;;;;;;;;16.80;99.90;;;;;;5131721;27;19911;-54
2023/07/15 07:11:52;;;;;;;;;;;16.80;99.90;;;;;;5131405;27;20439;-54
2023/07/15 07:14:18;;;;;;;;;;;16.80;99.90;;;;;;5123341;27;19912;-56
2023/07/15 07:16:44;;;;;;;;;;;17.00;99.90;;;;;;5133913;27;19915;-54
2023/07/15 07:19:09;;;;;;;;;;;17.10;99.90;;;;;;5129960;27;19923;-55
2023/07/15 07:21:35;;;;;;;;;;;17.30;99.90;;;;;;5134285;27;19951;-55
2023/07/15 07:24:01;;;;;;;;;;;17.30;99.90;;;;;;5129317;27;20328;-56
2023/07/15 07:26:26;;;;;;;;;;;17.30;99.90;;;;;;5125949;27;19916;-56
2023/07/15 07:28:52;;;;;;;;;;;17.30;99.90;;;;;;5131378;27;19911;-55
2023/07/15 07:31:18;;;;;;;;;;;17.30;99.90;;;;;;5125019;27;20006;-56
2023/07/15 07:33:44;;;;;;;;;;;17.30;99.90;;;;;;5122217;27;19922;-56
2023/07/15 07:36:10;;;;;;;;;;;17.20;99.90;;;;;;5133664;27;19911;-55
2023/07/15 07:38:35;;;;;;;;;;;17.00;99.90;;;;;;5135251;27;19918;-55
2023/07/15 07:41:05;;;;;;;;;;;17.00;99.90;;;;;;5130799;27;19923;-55
2023/07/15 07:43:31;;;;;;;;;;;17.00;99.90;;;;;;5129227;27;19912;-51
2023/07/15 07:45:56;;;;;;;;;;;17.00;99.90;;;;;;5134371;27;19911;-56
2023/07/15 07:48:22;;;;;;;;;;;16.90;99.90;;;;;;5136280;27;19918;-55
2023/07/15 07:50:48;;;;;;;;;;;16.90;99.90;;;;;;5136036;27;19912;-55
2023/07/15 07:53:13;;;;;;;;;;;16.90;99.90;;;;;;5131194;27;19912;-54
2023/07/15 07:55:39;;;;;;;;;;;16.90;99.90;;;;;;5129771;27;19912;-55
2023/07/15 07:58:05;;;;;;;;;;;16.90;99.90;;;;;;5119938;28;19915;-53
2023/07/15 08:00:30;;;;;;;;;;;17.00;99.90;;;;;;5119796;28;19911;-54
2023/07/15 08:02:56;;;;;;;;;;;16.90;99.90;;;;;;5135802;27;20336;-55
2023/07/15 08:05:21;;;;;;;;;;;16.90;99.90;;;;;;5135852;27;19950;-55
2023/07/15 08:07:47;;;;;;;;;;;16.90;99.90;;;;;;5123168;27;19958;-56
2023/07/15 08:10:13;;;;;;;;;;;16.80;99.90;;;;;;5120908;27;19908;-56
2023/07/15 08:12:38;;;;;;;;;;;16.80;99.90;;;;;;5135294;27;19911;-53
2023/07/15 08:15:04;;;;;;;;;;;16.70;99.90;;;;;;5128659;27;20003;-55
2023/07/15 08:17:30;;;;;;;;;;;16.70;99.90;;;;;;5128883;27;19912;-55
2023/07/15 08:19:56;;;;;;;;;;;16.70;99.90;;;;;;5127305;27;19919;-54
2023/07/15 08:22:22;;;;;;;;;;;16.70;99.90;;;;;;5135406;27;19919;-54
2023/07/15 08:24:47;;;;;;;;;;;16.80;99.90;;;;;;5139863;27;19908;-55
2023/07/15 08:27:13;;;;;;;;;;;16.90;99.90;;;;;;5125906;27;19979;-51
2023/07/15 08:29:38;;;;;;;;;;;17.00;99.90;;;;;;5131216;27;20010;-55
2023/07/15 08:32:04;;;;;;;;;;;17.10;99.90;;;;;;5140396;27;19907;-54
2023/07/15 08:34:32;;;;;;;;;;;17.30;99.90;;;;;;5120957;27;19964;-55
2023/07/15 08:36:57;;;;;;;;;;;17.40;99.90;;;;;;5136514;27;19912;-55
2023/07/15 08:39:23;;;;;;;;;;;17.40;99.90;;;;;;5133595;27;19918;-56
2023/07/15 08:41:50;;;;;;;;;;;17.30;99.90;;;;;;5134018;27;19915;-54
2023/07/15 08:44:16;;;;;;;;;;;17.20;99.90;;;;;;5138300;27;19939;-56
2023/07/15 08:46:43;;;;;;;;;;;17.20;99.90;;;;;;5109847;27;20293;-55
2023/07/15 08:49:10;;;;;;;;;;;17.20;99.90;;;;;;5140109;27;20359;-55
2023/07/15 08:51:36;;;;;;;;;;;17.30;99.90;;;;;;5125559;27;19908;-56
2023/07/15 08:54:02;;;;;;;;;;;17.20;99.90;;;;;;5136202;27;19919;-55
2023/07/15 08:56:28;;;;;;;;;;;17.30;99.90;;;;;;5136482;27;19999;-53
2023/07/15 08:59:00;;;;;;;;;;;17.30;99.90;;;;;;5138713;27;20343;-52
2023/07/15 09:01:26;;;;;;;;;;;17.30;99.90;;;;;;5125690;27;19919;-55
2023/07/15 09:03:51;;;;;;;;;;;17.40;99.90;;;;;;5119155;28;19995;-53
2023/07/15 09:06:17;;;;;;;;;;;17.40;99.90;;;;;;5119130;28;19948;-53
2023/07/15 09:08:43;;;;;;;;;;;17.40;99.90;;;;;;5121921;27;20856;-56
2023/07/15 09:11:11;;;;;;;;;;;17.50;99.90;;;;;;5131863;27;19918;-54
2023/07/15 09:13:37;;;;;;;;;;;17.50;99.90;;;;;;5126236;27;19918;-56
2023/07/15 09:16:03;;;;;;;;;;;17.60;99.90;;;;;;5131312;27;19912;-54
2023/07/15 09:18:29;;;;;;;;;;;17.70;99.90;;;;;;5118552;28;19920;-55
2023/07/15 09:21:17;;;;;;;;;;;17.80;99.90;;;;;;5121462;27;19916;-53
2023/07/15 09:23:44;;;;;;;;;;;17.80;99.90;;;;;;5132866;27;19941;-53
2023/07/15 09:26:10;;;;;;;;;;;17.80;99.90;;;;;;5129707;27;19931;-55
2023/07/15 09:28:36;;;;;;;;;;;17.80;99.90;;;;;;5119784;27;19976;-54
2023/07/15 09:31:02;;;;;;;;;;;17.90;99.90;;;;;;5130708;27;19912;-54
2023/07/15 09:33:29;;;;;;;;;;;18.10;99.90;;;;;;5129756;27;19908;-54
2023/07/15 09:35:55;;;;;;;;;;;18.20;99.90;;;;;;5138992;27;19931;-54
2023/07/15 09:38:21;;;;;;;;;;;18.40;99.90;;;;;;5127052;27;19923;-55
2023/07/15 09:40:46;;;;;;;;;;;18.40;99.90;;;;;;5118655;28;19998;-55
2023/07/15 09:43:12;;;;;;;;;;;18.50;99.90;;;;;;5133987;27;19911;-55
2023/07/15 09:45:39;;;;;;;;;;;18.50;99.90;;;;;;5125060;27;19919;-54
2023/07/15 09:48:08;;;;;;;;;;;18.40;99.90;;;;;;5133911;27;19911;-55
2023/07/15 09:50:35;;;;;;;;;;;18.30;99.90;;;;;;5130140;27;19907;-56
2023/07/15 09:53:01;;;;;;;;;;;18.30;99.90;;;;;;5139286;27;19907;-55
2023/07/15 09:55:28;;;;;;;;;;;18.30;99.90;;;;;;5138967;27;19908;-55
2023/07/15 09:57:57;;;;;;;;;;;18.40;99.90;;;;;;5139014;27;19916;-55
2023/07/15 10:00:24;;;;;;;;;;;18.50;99.90;;;;;;5128475;28;20366;-56
2023/07/15 10:02:55;;;;;;;;;;;18.60;99.90;;;;;;5127431;28;19919;-55
2023/07/15 10:05:22;;;;;;;;;;;18.80;99.90;;;;;;5120383;28;19989;-55
2023/07/15 10:07:48;;;;;;;;;;;18.90;99.90;;;;;;5122541;28;19966;-56
2023/07/15 10:10:13;;;;;;;;;;;19.10;99.90;;;;;;5129914;28;19907;-56
2023/07/15 10:12:39;;;;;;;;;;;19.20;99.90;;;;;;5121639;28;19950;-55
2023/07/15 10:15:05;;;;;;;;;;;19.40;99.90;;;;;;5122376;28;19928;-55
2023/07/15 10:17:35;;;;;;;;;;;19.80;99.90;;;;;;5122676;28;19951;-53
2023/07/15 10:20:17;;;;;;;;;;;20.10;99.90;;;;;;5122473;28;19923;-56
2023/07/15 10:22:43;;;;;;;;;;;20.60;99.90;;;;;;5129829;27;19911;-54
2023/07/15 10:25:15;;;;;;;;;;;20.90;99.90;;;;;;5131433;27;19998;-56
2023/07/15 10:27:40;;;;;;;;;;;21.20;99.90;;;;;;5133489;27;19947;-55
2023/07/15 10:30:15;;;;;;;;;;;21.60;99.90;;;;;;5134821;27;19969;-56
2023/07/15 10:33:10;;;;;;;;;;;21.80;99.90;;;;;;5130133;27;19908;-54
2023/07/15 10:35:42;;;;;;;;;;;22.40;99.90;;;;;;5114018;27;19915;-57
2023/07/15 10:38:19;;;;;;;;;;;22.70;99.90;;;;;;5126723;27;19907;-55
2023/07/15 10:40:49;;;;;;;;;;;22.80;99.90;;;;;;5141938;27;20010;-55
2023/07/15 10:43:22;;;;;;;;;;;22.50;99.90;;;;;;5141507;27;19907;-55
2023/07/15 10:45:54;;;;;;;;;;;23.20;99.90;;;;;;5142421;27;19952;-56
2023/07/15 10:48:21;;;;;;;;;;;23.00;99.90;;;;;;5142733;27;19927;-55
2023/07/15 10:50:47;;;;;;;;;;;23.20;99.90;;;;;;5142967;27;19911;-55
2023/07/15 10:53:21;;;;;;;;;;;23.30;99.90;;;;;;5142506;27;19911;-55
2023/07/15 10:55:53;;;;;;;;;;;23.90;99.90;;;;;;5142246;27;20366;-55
2023/07/15 10:58:18;;;;;;;;;;;24.30;99.90;;;;;;5142515;27;19914;-56
2023/07/15 11:00:44;;;;;;;;;;;24.70;99.90;;;;;;5142327;27;19912;-55
2023/07/15 11:03:09;;;;;;;;;;;24.20;99.90;;;;;;5142089;27;19977;-51
2023/07/15 11:05:35;;;;;;;;;;;24.30;96.30;;;;;;5142622;27;19915;-54
2023/07/15 11:08:04;;;;;;;;;;;24.40;99.40;;;;;;5142312;27;20316;-54
2023/07/15 11:10:33;;;;;;;;;;;24.60;92.70;;;;;;5142087;27;19907;-53
2023/07/15 11:13:14;;;;;;;;;;;24.80;99.90;;;;;;5142276;27;19976;-53
2023/07/15 11:15:40;;;;;;;;;;;24.10;99.90;;;;;;5141665;27;19961;-55
2023/07/15 11:18:13;;;;;;;;;;;24.20;99.90;;;;;;5141692;27;19927;-55
2023/07/15 11:20:39;;;;;;;;;;;24.00;98.70;;;;;;5142020;27;19911;-54
2023/07/15 11:23:04;;;;;;;;;;;24.10;99.90;;;;;;5141588;27;20026;-56
2023/07/15 11:25:32;;;;;;;;;;;24.10;98.00;;;;;;5142129;27;19975;-55
2023/07/15 11:28:00;;;;;;;;;;;24.00;95.70;;;;;;5141999;27;19994;-55
2023/07/15 11:30:33;;;;;;;;;;;24.70;99.90;;;;;;5141715;27;20294;-55
2023/07/15 11:32:59;;;;;;;;;;;24.90;98.00;;;;;;5141620;27;20291;-56
2023/07/15 11:35:24;;;;;;;;;;;25.00;99.90;;;;;;5141756;27;19907;-56
2023/07/15 11:37:50;;;;;;;;;;;25.60;98.10;;;;;;5141987;27;19927;-54
2023/07/15 11:40:16;;;;;;;;;;;24.70;99.90;;;;;;5141565;27;19932;-55
2023/07/15 11:42:42;;;;;;;;;;;24.20;94.60;;;;;;5141250;27;19907;-55
2023/07/15 11:45:08;;;;;;;;;;;25.40;98.10;;;;;;5141763;27;19994;-54
2023/07/15 11:47:36;;;;;;;;;;;26.20;99.40;;;;;;5141548;27;19908;-55
2023/07/15 11:50:03;;;;;;;;;;;26.40;97.20;;;;;;5141305;27;19908;-56
2023/07/15 11:52:38;;;;;;;;;;;26.30;92.10;;;;;;5141314;27;19954;-55
2023/07/15 11:55:04;;;;;;;;;;;26.70;95.50;;;;;;5140083;27;19907;-55
2023/07/15 11:57:29;;;;;;;;;;;25.70;95.10;;;;;;5140965;27;19914;-53
2023/07/15 11:59:55;;;;;;;;;;;25.40;90.80;;;;;;5141454;27;19914;-54
2023/07/15 12:02:21;;;;;;;;;;;24.90;93.80;;;;;;5141214;27;19914;-54
2023/07/15 12:04:48;;;;;;;;;;;24.20;94.70;;;;;;5141065;27;19907;-55
2023/07/15 12:07:14;;;;;;;;;;;24.30;93.80;;;;;;5141345;27;19908;-56
2023/07/15 12:09:40;;;;;;;;;;;24.40;94.30;;;;;;5140859;27;19916;-55
2023/07/15 12:12:06;;;;;;;;;;;24.50;92.80;;;;;;5141043;27;19943;-54
2023/07/15 12:14:33;;;;;;;;;;;24.50;97.80;;;;;;5140923;27;19907;-53
2023/07/15 12:16:59;;;;;;;;;;;25.00;97.50;;;;;;5140643;27;19930;-56
2023/07/15 12:19:27;;;;;;;;;;;25.50;91.80;;;;;;5140619;27;19926;-55
2023/07/15 12:21:52;;;;;;;;;;;25.50;84.00;;;;;;5140440;27;19911;-55
2023/07/15 12:24:18;;;;;;;;;;;25.30;85.20;;;;;;5140831;27;19914;-55
2023/07/15 12:26:44;;;;;;;;;;;25.10;86.10;;;;;;5140745;27;19915;-56
2023/07/15 12:29:09;;;;;;;;;;;24.80;90.50;;;;;;5140845;27;19928;-54
2023/07/15 12:31:44;;;;;;;;;;;24.70;86.70;;;;;;5140383;27;19915;-54
2023/07/15 12:34:10;;;;;;;;;;;24.50;88.00;;;;;;5139782;27;19912;-56
2023/07/15 12:36:35;;;;;;;;;;;25.00;86.50;;;;;;5140110;27;20429;-55
2023/07/15 12:39:01;;;;;;;;;;;24.80;80.80;;;;;;5140163;27;19915;-56
2023/07/15 12:41:27;;;;;;;;;;;25.00;84.30;;;;;;5140165;27;20342;-53
2023/07/15 12:43:52;;;;;;;;;;;24.90;81.40;;;;;;5140284;27;19915;-53
2023/07/15 12:46:18;;;;;;;;;;;25.00;75.40;;;;;;5140605;27;19986;-55
2023/07/15 12:48:45;;;;;;;;;;;25.10;77.30;;;;;;5140000;27;19917;-56
2023/07/15 12:51:10;;;;;;;;;;;25.30;77.80;;;;;;5140571;27;20649;-55
2023/07/15 12:53:37;;;;;;;;;;;25.30;78.40;;;;;;5140076;27;19998;-56
2023/07/15 12:56:02;;;;;;;;;;;26.00;75.80;;;;;;5139910;27;19907;-55
2023/07/15 12:58:28;;;;;;;;;;;25.20;77.70;;;;;;5140228;27;19914;-54
2023/07/15 13:00:56;;;;;;;;;;;24.80;89.70;;;;;;5139769;27;19918;-56
2023/07/15 13:03:21;;;;;;;;;;;25.10;77.70;;;;;;5139664;27;20401;-55
2023/07/15 13:05:47;;;;;;;;;;;24.90;83.70;;;;;;5139954;27;19907;-55
2023/07/15 13:08:15;;;;;;;;;;;25.10;91.80;;;;;;5139716;27;19908;-55
2023/07/15 13:10:43;;;;;;;;;;;25.60;87.20;;;;;;5139634;27;19914;-54
2023/07/15 13:13:09;;;;;;;;;;;25.50;90.10;;;;;;5139499;27;20334;-56
2023/07/15 13:15:34;;;;;;;;;;;24.70;81.10;;;;;;5139628;27;19915;-57
2023/07/15 13:18:00;;;;;;;;;;;24.50;90.10;;;;;;5139719;27;20014;-54
2023/07/15 13:20:25;;;;;;;;;;;24.80;82.70;;;;;;5139635;27;19988;-56
2023/07/15 13:22:51;;;;;;;;;;;24.80;90.90;;;;;;5139787;27;19915;-55
2023/07/15 13:25:17;;;;;;;;;;;24.90;80.40;;;;;;5139540;27;19907;-55
2023/07/15 13:27:44;;;;;;;;;;;24.30;80.90;;;;;;5138590;27;21330;-55
2023/07/15 13:30:10;;;;;;;;;;;24.30;90.40;;;;;;5139654;27;19915;-55
2023/07/15 13:32:36;;;;;;;;;;;24.20;91.00;;;;;;5139526;27;19911;-53
2023/07/15 13:35:01;;;;;;;;;;;23.70;90.50;;;;;;5139487;27;19915;-53
2023/07/15 13:37:27;;;;;;;;;;;24.10;84.30;;;;;;5139188;27;19908;-54
2023/07/15 13:39:53;;;;;;;;;;;24.20;86.90;;;;;;5139219;27;19953;-55
2023/07/15 13:42:20;;;;;;;;;;;24.50;90.70;;;;;;5139122;27;19965;-55
2023/07/15 13:44:48;;;;;;;;;;;25.00;89.50;;;;;;5138837;27;20388;-55
2023/07/15 13:47:14;;;;;;;;;;;24.50;84.10;;;;;;5139072;27;19933;-54
2023/07/15 13:49:39;;;;;;;;;;;24.40;77.70;;;;;;5138962;27;19907;-52
2023/07/15 13:52:08;;;;;;;;;;;23.80;80.00;;;;;;5138987;27;19960;-55
2023/07/15 13:54:34;;;;;;;;;;;23.80;90.80;;;;;;5139175;27;19950;-55
2023/07/15 13:56:59;;;;;;;;;;;23.90;91.60;;;;;;5139108;27;19907;-54
2023/07/15 13:59:25;;;;;;;;;;;23.70;91.30;;;;;;5139362;27;19915;-53
2023/07/15 14:01:51;;;;;;;;;;;24.10;86.10;;;;;;5138821;27;19919;-54
2023/07/15 14:04:16;;;;;;;;;;;23.90;87.80;;;;;;5138946;27;19912;-55
2023/07/15 14:06:42;;;;;;;;;;;23.80;90.80;;;;;;5139242;27;20358;-55
2023/07/15 14:09:08;;;;;;;;;;;23.80;90.80;;;;;;5138899;27;19998;-55
2023/07/15 14:11:34;;;;;;;;;;;23.60;89.20;;;;;;5138673;28;19911;-53